Latest Coastal Weather Observations for Montague Island

IDN60701

Issued at 4:22 pm EST Wednesday 24 August 2016 (issued every 10 minutes, with the page automatically refreshed every 10 minutes)

About coastal observations | Map of coastal stations | Coastal observations for NSW | Marine services | Other Formats
Station Details ID: 069017 Name: MONTAGUE ISLAND LIGHTHOUSE Lat: -36.25 Lon: 150.23 Height: 52.0 m
Data from the previous 72 hours. | See also: Recent months at Montague Island
Date/Time
EST
Temp
°C
Wind Pressure Rain since
9am
mm
Weather Cloud Vis
km
Sea
Height
m
Swell
Dir  Spd
kts
Gust
kts
hPa Trend Height
m
Period
s
Dir
24/04:00pm 12.6 S 8 11 1010.3 - 0.0 - - - - - - -
24/03:30pm 12.8 S 9 12 1010.4 - 0.0 - - - - - - -
24/03:00pm 12.7 S 9 12 1010.7 - 0.0 - - - - - - -
24/02:30pm 12.7 S 8 10 1011.0 - 0.0 - - - - - - -
24/02:00pm 12.7 SSW 9 11 1011.0 - 0.0 - - - - - - -
24/01:30pm 12.9 SSW 9 11 1011.0 - 0.0 - - - - - - -
24/01:00pm 12.8 SSW 8 10 1011.6 - 0.0 - - - - - - -
24/12:30pm 12.8 SSW 9 12 1011.9 - 0.0 - - - - - - -
24/12:00pm 12.8 SSW 9 11 1012.3 - 0.0 - - - - - - -
24/11:30am 12.3 SW 9 11 1013.6 - 0.0 - - - - - - -
24/11:00am 12.5 SSW 9 11 1014.0 - 0.0 - - - - - - -
24/10:30am 12.3 SSW 9 11 1014.5 - 0.0 - - - - - - -
24/10:00am 12.3 SW 9 11 1014.6 - 0.0 - - - - - - -
24/09:30am 11.8 SSW 9 11 1014.9 - 0.0 - - - - - - -
24/09:00am 11.6 SW 8 10 1015.3 - 0.0 - - - - - - -
24/08:30am 11.3 SW 8 11 1015.4 - 0.0 - - - - - - -
24/08:00am 11.1 SW 8 10 1015.3 - 0.0 - - - - - - -
24/07:30am 10.9 SSW 8 10 1015.1 - 0.0 - - - - - - -
24/07:00am 10.9 SW 8 10 1015.2 - 0.0 - - - - - - -
24/06:30am 10.9 SW 9 11 1015.3 - 0.0 - - - - - - -
24/06:00am 10.6 SSW 8 10 1015.1 - 0.0 - - - - - - -
24/05:30am 10.7 SW 8 10 1015.3 - 0.0 - - - - - - -
24/05:00am 10.6 SW 8 10 1015.4 - 0.0 - - - - - - -
24/04:30am 10.4 SW 8 10 1015.2 - 0.0 - - - - - - -
24/04:00am 10.2 SW 9 11 1015.1 - 0.0 - - - - - - -
24/03:30am 10.4 SW 10 13 1014.8 - 0.0 - - - - - - -
24/03:00am 10.5 SSW 10 12 1015.1 - 0.0 - - - - - - -
24/02:30am 10.7 SSW 9 12 1015.6 - 0.0 - - - - - - -
24/02:00am 10.6 SSW 8 10 1016.1 - 0.0 - - - - - - -
24/01:30am 10.6 SW 8 10 1016.4 - 0.0 - - - - - - -
24/01:00am 10.9 SSW 9 11 1016.2 - 0.0 - - - - - - -
24/12:30am 11.0 SSW 8 10 1016.6 - 0.0 - - - - - - -
24/12:00am 10.9 SSW 8 10 1016.8 - 0.0 - - - - - - -
 
Date/Time
EST
Temp
°C
Wind Pressure Rain since
9am
mm
Weather Cloud Vis
km
Sea
Height
m
Swell
Dir  Spd
kts
Gust
kts
hPa Trend Height
m
Period
s
Dir
23/11:30pm 11.1 SW 7 10 1017.1 - 0.0 - - - - - - -
23/11:00pm 11.8 SSW 8 11 1016.9 - 0.0 - - - - - - -
23/10:30pm 11.8 S 10 12 1016.4 - 0.0 - - - - - - -
23/10:00pm 12.0 S 11 13 1016.4 - 0.0 - - - - - - -
23/09:30pm 12.1 S 11 13 1016.4 - 0.0 - - - - - - -
23/09:00pm 12.1 S 9 11 1016.9 - 0.0 - - - - - - -
23/08:30pm 12.3 S 10 12 1017.0 - 0.0 - - - - - - -
23/08:00pm 12.4 S 9 10 1017.1 - 0.0 - - - - - - -
23/07:30pm 12.5 S 9 11 1016.5 - 0.0 - - - - - - -
23/07:00pm 12.6 S 10 12 1016.0 - 0.0 - - - - - - -
23/06:30pm 12.6 S 10 13 1015.6 - 0.0 - - - - - - -
23/06:00pm 12.6 SSE 10 13 1015.8 - 0.0 - - - - - - -
23/05:30pm 12.8 SSE 11 13 1015.6 - 0.0 - - - - - - -
23/05:00pm 12.9 SSE 11 16 1015.5 - 0.0 - - - - - - -
23/04:30pm 12.9 S 12 14 1014.9 - 0.0 - - - - - - -
23/04:00pm 13.0 SSE 12 15 1014.5 - 0.0 - - - - - - -
23/03:30pm 13.0 SSE 12 16 1014.2 - 0.0 - - - - - - -
23/03:00pm 13.2 SSE 12 15 1013.4 - 0.0 - - - - - - -
23/02:30pm 13.4 SSE 12 15 1013.9 - 0.0 - - - - - - -
23/02:00pm 13.6 S 11 14 1014.1 - 0.0 - - - - - - -
23/01:30pm 14.1 S 11 14 1014.0 - 0.0 - - - - - - -
23/01:00pm 13.8 S 12 15 1014.1 - 0.0 - - - - - - -
23/12:30pm 13.9 SSW 13 17 1014.3 - 0.0 - - - - - - -
23/12:00pm 13.4 SSW 15 18 1014.6 - 0.0 - - - - - - -
23/11:30am 13.6 SSW 11 14 1014.7 - 0.0 - - - - - - -
23/11:00am 12.9 SSW 12 15 1014.7 - 0.0 - - - - - - -
23/10:30am 12.5 SSW 12 15 1014.4 - 0.0 - - - - - - -
23/10:00am 11.7 SSW 12 15 1014.1 - 0.0 - - - - - - -
23/09:30am 11.1 SW 11 13 1014.1 - 0.0 - - - - - - -
23/09:00am 11.0 SSW 10 13 1014.2 - 1.6 Recent precip. - - - - - -
23/08:30am 10.9 SSW 12 16 1014.0 - 1.6 - - - - - - -
23/08:00am 10.9 SSW 13 16 1014.0 - 1.2 - - - - - - -
23/07:30am 11.2 SW 13 18 1013.7 - 0.8 - - - - - - -
23/07:00am 11.2 SW 13 16 1013.3 - 0.8 - - - - - - -
23/06:30am 11.2 SW 13 17 1013.0 - 0.8 - - - - - - -
23/06:00am 11.5 SW 14 17 1012.5 - 0.8 - - - - - - -
23/05:30am 11.5 SW 14 17 1012.0 - 0.8 - - - - - - -
23/05:00am 11.4 SW 14 16 1011.8 - 0.8 - - - - - - -
23/04:30am 11.2 SW 13 16 1011.5 - 0.8 - - - - - - -
23/04:00am 11.1 SW 14 17 1011.3 - 0.8 - - - - - - -
23/03:30am 11.2 SW 13 17 1011.2 - 0.6 - - - - - - -
23/03:00am 11.3 SW 12 14 1011.4 - 0.4 Recent precip. - - - - - -
23/02:30am 11.7 SW 12 16 1011.3 - 0.2 - - - - - - -
23/02:00am 11.9 SW 12 15 1011.3 - 0.0 - - - - - - -
23/01:30am 12.2 SSW 10 14 1011.4 - 0.0 - - - - - - -
23/01:00am 12.0 SSW 8 10 1011.7 - 0.0 - - - - - - -
23/12:30am 12.0 SSW 10 12 1011.8 - 0.0 - - - - - - -
23/12:00am 12.4 SSW 9 11 1011.8 - 0.0 - - - - - - -
 
Date/Time
EST
Temp
°C
Wind Pressure Rain since
9am
mm
Weather Cloud Vis
km
Sea
Height
m
Swell
Dir  Spd
kts
Gust
kts
hPa Trend Height
m
Period
s
Dir
22/11:30pm 12.6 SSW 10 13 1011.8 - 0.0 - - - - - - -
22/11:00pm 12.7 SSW 9 11 1012.0 - 0.0 - - - - - - -
22/10:30pm 12.9 SW 10 12 1012.3 - 0.0 - - - - - - -
22/10:00pm 12.8 SW 9 11 1012.4 - 0.0 - - - - - - -
22/09:30pm 13.0 SW 9 10 1012.5 - 0.0 - - - - - - -
22/09:00pm 12.8 SW 9 11 1012.5 - 0.0 - - - - - - -
22/08:30pm 13.1 SW 8 10 1012.6 - 0.0 - - - - - - -
22/08:00pm 13.3 SSW 8 10 1012.5 - 0.0 - - - - - - -
22/07:30pm 13.1 SSW 8 10 1012.8 - 0.0 - - - - - - -
22/07:00pm 13.8 SW 8 10 1013.1 - 0.0 - - - - - - -
22/06:30pm 13.7 SSW 6 7 1013.0 - 0.0 - - - - - - -
22/06:00pm 13.6 S 8 9 1012.7 - 0.0 - - - - - - -
22/05:30pm 13.7 SSE 6 8 1012.4 - 0.0 - - - - - - -
22/05:00pm 14.0 SE 6 7 1012.2 - 0.0 - - - - - - -
22/04:30pm 14.2 SE 4 5 1012.4 - 0.0 - - - - - - -
22/04:00pm 14.3 ESE 3 4 1012.4 - 0.0 - - - - - - -
22/03:30pm 14.9 ENE 4 5 1012.6 - 0.0 - - - - - - -
22/03:00pm 15.5 NE 4 7 1012.9 - 0.0 - - - - - - -
22/02:30pm 15.9 ENE 2 5 1013.0 - 0.0 - - - - - - -
22/02:00pm 15.7 NW 3 5 1013.3 - 0.0 - - - - - - -
22/01:30pm 15.6 WSW 4 6 1013.7 - 0.0 - - - - - - -
22/01:00pm 15.2 NW 4 6 1014.4 - 0.0 - - - - - - -
22/12:30pm 14.7 NW 6 8 1014.9 - 0.0 - - - - - - -
22/12:00pm 14.7 NNW 5 8 1015.0 - 0.0 - - - - - - -
22/11:30am 14.9 NE 5 6 1015.3 - 0.0 - - - - - - -
22/11:00am 15.1 WSW 3 5 1015.6 - 0.0 - - - - - - -
22/10:30am 15.1 W 2 4 1015.9 - 0.0 - - - - - - -
22/10:00am 15.0 WNW 6 8 1016.2 - 0.0 - - - - - - -
22/09:30am 13.4 NNW 5 11 1016.3 - 0.0 - - - - - - -
22/09:00am 13.7 SSW 5 11 1016.0 - 0.0 - - - - - - -
22/08:30am 13.2 SSW 8 10 1015.7 - 0.0 - - - - - - -
22/08:00am 12.6 S 6 10 1016.0 - 0.0 - - - - - - -
22/07:30am 12.5 WSW 4 6 1015.9 - 0.0 - - - - - - -
22/07:00am 12.6 NW 7 10 1016.0 - 0.0 - - - - - - -
22/06:30am 12.4 NW 6 9 1015.5 - 0.0 - - - - - - -
22/06:00am 12.0 WNW 6 9 1015.0 - 0.0 - - - - - - -
22/05:30am 11.9 WNW 6 8 1014.9 - 0.0 - - - - - - -
22/05:00am 12.0 NW 7 10 1014.6 - 0.0 - - - - - - -
22/04:30am 12.0 NW 7 9 1014.5 - 0.0 - - - - - - -
22/04:00am 11.8 NW 7 9 1014.5 - 0.0 - - - - - - -
22/03:30am 11.8 NNW 8 9 1014.7 - 0.0 - - - - - - -
22/03:00am 11.9 NNW 8 9 1014.8 - 0.0 - - - - - - -
22/02:30am 12.2 NNW 7 10 1015.0 - 0.0 - - - - - - -
22/02:00am 12.3 NNW 7 9 1014.9 - 0.0 - - - - - - -
22/01:30am 12.4 NW 7 9 1014.9 - 0.0 - - - - - - -
22/01:00am 12.0 NNW 7 9 1015.0 - 0.0 - - - - - - -
22/12:30am 12.3 NW 8 9 1015.0 - 0.0 - - - - - - -
22/12:00am 12.4 NNW 7 9 1015.2 - 0.0 - - - - - - -
 
Date/Time
EST
Temp
°C
Wind Pressure Rain since
9am
mm
Weather Cloud Vis
km
Sea
Height
m
Swell
Dir  Spd
kts
Gust
kts
hPa Trend Height
m
Period
s
Dir
21/11:30pm 12.5 NNW 7 9 1015.3 - 0.0 - - - - - - -
21/11:00pm 12.5 NNW 5 7 1015.2 - 0.0 - - - - - - -
21/10:30pm 13.1 N 5 7 1015.5 - 0.0 - - - - - - -
21/10:00pm 13.4 NW 6 9 1015.4 - 0.0 - - - - - - -
21/09:30pm 13.7 NW 5 8 1015.4 - 0.0 - - - - - - -
21/09:00pm 13.5 W 2 6 1015.7 - 0.0 - - - - - - -
21/08:30pm 13.9 NW 8 10 1015.5 - 0.0 - - - - - - -
21/08:00pm 14.3 WNW 9 12 1015.2 - 0.0 - - - - - - -
21/07:30pm 14.6 WNW 10 14 1014.6 - 0.0 - - - - - - -
21/07:00pm 15.1 WNW 12 19 1014.5 - 0.0 - - - - - - -
21/06:30pm 15.5 WNW 9 12 1014.3 - 0.0 - - - - - - -
21/06:00pm 15.8 WNW 11 17 1014.0 - 0.0 - - - - - - -
21/05:30pm 16.2 WNW 12 19 1013.6 - 0.0 - - - - - - -
21/05:00pm 16.9 WNW 11 19 1013.2 - 0.0 - - - - - - -
21/04:30pm 16.8 WNW 8 10 1013.0 - 0.0 - - - - - - -

Other Formats:

Comma delimited format used in spreadsheet applications
http://www.bom.gov.au/fwo/IDN60701/IDN60701.94939.axf

JavaScript Object Notation format (JSON) in row-major order
http://www.bom.gov.au/fwo/IDN60701/IDN60701.94939.json